KHI weather

Jinnah International Airport
Karachi, Sindh, Pakistan

Public forecast

Using degrees Celsius for public forecast. Weather courtesy of forecast.io.

Current aviation weather report (METAR) for Jinnah International Airport

Retrieved 2019/10/14 10:25 UTC (1 hour ago):

OPKC 141025Z 23011KT 7000 NSC 34/12 Q1012 NOSIG

Aviation forecast (TAF) for Jinnah International Airport

Retrieved 2019/10/14 06:00 UTC (6 hours ago):

TAF OPKC 140400Z 1406/1512 27005G15KT 7000 FEW030 FM141800 27010KT 5000 FU FEW040 FM150500 24005G15KT 7000 FEW030